createdAt,value
2023-02-22T00:02:14.091Z,54.04
2023-02-22T00:04:42.234Z,54.06
2023-02-22T00:07:10.268Z,53.97
2023-02-22T00:09:38.371Z,54.00
2023-02-22T00:12:06.525Z,54.08
2023-02-22T00:14:34.537Z,54.05
2023-02-22T00:17:02.767Z,54.12
2023-02-22T00:19:31.314Z,54.10
2023-02-22T00:22:00.183Z,54.13
2023-02-22T00:24:29.519Z,54.06
2023-02-22T00:26:57.766Z,54.06
2023-02-22T00:29:26.437Z,54.08
2023-02-22T00:31:54.631Z,54.11
2023-02-22T00:34:24.304Z,54.07
2023-02-22T00:36:52.445Z,54.07
2023-02-22T00:39:20.737Z,54.16
2023-02-22T00:41:49.837Z,54.18
2023-02-22T00:44:18.054Z,54.09
2023-02-22T00:46:46.879Z,54.13
2023-02-22T00:49:16.949Z,54.10
2023-02-22T00:51:45.430Z,54.10
2023-02-22T00:54:14.481Z,54.14
2023-02-22T00:56:42.900Z,54.18
2023-02-22T00:59:11.086Z,54.17
2023-02-22T01:01:39.323Z,54.14
2023-02-22T01:04:07.352Z,54.18
2023-02-22T01:06:36.194Z,54.20
2023-02-22T01:09:04.437Z,54.14
2023-02-22T01:11:32.398Z,54.23
2023-02-22T01:14:02.383Z,54.28
2023-02-22T01:16:30.663Z,54.29
2023-02-22T01:19:01.435Z,54.24
2023-02-22T01:21:29.658Z,54.24
2023-02-22T01:23:57.669Z,54.28
2023-02-22T01:26:25.785Z,54.21
2023-02-22T01:28:54.587Z,54.22
2023-02-22T01:31:24.082Z,54.21
2023-02-22T01:33:52.286Z,54.29
2023-02-22T01:36:20.466Z,54.12
2023-02-22T01:38:48.522Z,54.21
2023-02-22T01:41:18.562Z,54.20
2023-02-22T01:43:46.821Z,54.23
2023-02-22T01:46:24.861Z,54.21
2023-02-22T01:48:59.316Z,54.25
2023-02-22T01:51:37.849Z,54.22
2023-02-22T01:54:15.339Z,54.26
2023-02-22T01:57:06.730Z,54.18
2023-02-22T01:59:38.091Z,54.12
2023-02-22T02:02:06.839Z,54.17
2023-02-22T02:04:36.447Z,54.12
2023-02-22T02:07:07.966Z,54.17
2023-02-22T02:09:43.586Z,54.18
2023-02-22T02:12:14.119Z,54.24
2023-02-22T02:14:44.046Z,54.23
2023-02-22T02:17:17.897Z,54.21
2023-02-22T02:19:59.330Z,54.22
2023-02-22T02:22:42.800Z,54.15
2023-02-22T02:25:30.937Z,54.24
2023-02-22T02:28:11.426Z,54.21
2023-02-22T02:30:45.418Z,54.12
2023-02-22T02:33:29.585Z,54.17
2023-02-22T02:36:04.640Z,54.13
2023-02-22T02:38:57.993Z,54.14
2023-02-22T02:41:33.785Z,54.14
2023-02-22T02:44:13.425Z,54.13
2023-02-22T02:47:29.078Z,54.21
2023-02-22T02:50:00.904Z,54.07
2023-02-22T02:52:31.986Z,54.17
2023-02-22T02:55:03.085Z,54.11
2023-02-22T02:57:31.170Z,54.10
2023-02-22T03:00:01.006Z,54.14
2023-02-22T03:02:49.718Z,54.12
2023-02-22T03:05:57.711Z,54.19
2023-02-22T03:08:31.830Z,54.22
2023-02-22T03:11:15.118Z,54.17
2023-02-22T03:14:09.185Z,54.18
2023-02-22T03:16:52.682Z,54.20
2023-02-22T03:19:35.873Z,54.25
2023-02-22T03:22:25.069Z,54.19
2023-02-22T03:24:56.067Z,54.27
2023-02-22T03:27:46.557Z,54.26
2023-02-22T03:30:29.052Z,54.15
2023-02-22T03:33:02.143Z,54.23
2023-02-22T03:35:34.867Z,54.25
2023-02-22T03:38:06.208Z,54.26
2023-02-22T03:40:39.551Z,54.19
2023-02-22T03:43:11.941Z,54.18
2023-02-22T03:45:44.974Z,54.23
2023-02-22T03:48:23.504Z,54.26
2023-02-22T03:50:52.472Z,54.35
2023-02-22T03:53:23.280Z,54.27
2023-02-22T03:55:54.258Z,54.22
2023-02-22T03:58:24.501Z,54.19
2023-02-22T04:00:53.411Z,54.25
2023-02-22T04:03:23.122Z,54.25
2023-02-22T04:05:52.210Z,54.19
2023-02-22T04:08:20.991Z,54.27
2023-02-22T04:10:49.663Z,54.18
2023-02-22T04:13:22.019Z,54.25
2023-02-22T04:15:51.963Z,54.20
2023-02-22T04:18:20.195Z,54.17
2023-02-22T04:20:49.736Z,54.26
2023-02-22T04:23:30.017Z,54.29
2023-02-22T04:25:59.480Z,54.19
2023-02-22T04:28:27.556Z,54.15
2023-02-22T04:31:06.201Z,54.17
2023-02-22T04:33:34.513Z,54.15
2023-02-22T04:36:02.794Z,54.03
2023-02-22T04:38:34.035Z,54.16
2023-02-22T04:41:02.407Z,54.19
2023-02-22T04:43:30.687Z,54.09
2023-02-22T04:46:13.152Z,54.07
2023-02-22T04:48:41.498Z,54.11
2023-02-22T04:51:10.023Z,54.06
2023-02-22T04:53:40.612Z,54.11
2023-02-22T04:56:08.799Z,54.14
2023-02-22T04:58:36.977Z,54.13
2023-02-22T05:01:05.175Z,54.08
2023-02-22T05:03:33.473Z,54.12
2023-02-22T05:06:01.706Z,54.16
2023-02-22T05:08:29.778Z,54.19
2023-02-22T05:10:57.850Z,54.14
2023-02-22T05:13:26.102Z,54.14
2023-02-22T05:15:54.500Z,54.14
2023-02-22T05:18:22.797Z,54.06
2023-02-22T05:20:50.785Z,54.08
2023-02-22T05:23:18.772Z,54.10
2023-02-22T05:25:46.961Z,54.04
2023-02-22T05:28:16.050Z,53.96
2023-02-22T05:30:44.251Z,54.13
2023-02-22T05:33:13.165Z,54.09
2023-02-22T05:35:41.133Z,54.02
2023-02-22T05:38:15.014Z,54.01
2023-02-22T05:40:43.243Z,54.04
2023-02-22T05:43:11.367Z,54.01
2023-02-22T05:45:39.456Z,53.98
2023-02-22T05:48:07.986Z,53.97
2023-02-22T05:50:35.980Z,54.02
2023-02-22T05:53:05.713Z,54.00
2023-02-22T05:55:33.622Z,53.95
2023-02-22T05:58:01.978Z,53.92
2023-02-22T06:00:31.516Z,54.00
2023-02-22T06:03:09.333Z,53.98
2023-02-22T06:05:38.155Z,53.92
2023-02-22T06:08:07.812Z,53.87
2023-02-22T06:10:36.056Z,53.85
2023-02-22T06:13:06.094Z,53.95
2023-02-22T06:15:34.317Z,53.92
2023-02-22T06:18:02.900Z,53.88
2023-02-22T06:20:31.425Z,53.94
2023-02-22T06:22:59.562Z,53.85
2023-02-22T06:25:31.389Z,53.80
2023-02-22T06:28:01.314Z,53.67
2023-02-22T06:30:30.725Z,53.66
2023-02-22T06:32:58.826Z,53.66
2023-02-22T06:35:26.868Z,53.62
2023-02-22T06:37:54.960Z,53.73
2023-02-22T06:40:23.056Z,53.58
2023-02-22T06:42:51.176Z,53.61
2023-02-22T06:45:19.373Z,53.56
2023-02-22T06:47:47.960Z,53.44
2023-02-22T06:50:25.165Z,53.32
2023-02-22T06:52:53.277Z,53.29
2023-02-22T06:55:24.226Z,53.29
2023-02-22T06:57:52.930Z,53.20
2023-02-22T07:00:23.411Z,53.22
2023-02-22T07:02:52.753Z,53.12
2023-02-22T07:05:22.926Z,53.10
2023-02-22T07:07:55.196Z,53.12
2023-02-22T07:10:25.258Z,53.08
2023-02-22T07:12:53.858Z,53.03
2023-02-22T07:15:27.999Z,52.96
2023-02-22T07:17:56.803Z,52.83
2023-02-22T07:20:26.520Z,52.81
2023-02-22T07:22:54.958Z,52.77
2023-02-22T07:25:23.819Z,52.81
2023-02-22T07:27:53.081Z,52.83
2023-02-22T07:30:30.757Z,52.70
2023-02-22T07:33:01.163Z,52.61
2023-02-22T07:35:32.060Z,52.62
2023-02-22T07:38:00.165Z,52.53
2023-02-22T07:40:29.236Z,52.60
2023-02-22T07:43:07.205Z,52.43
2023-02-22T07:45:36.170Z,52.42
2023-02-22T07:48:05.819Z,52.39
2023-02-22T07:50:34.865Z,52.33
2023-02-22T07:53:05.662Z,52.27
2023-02-22T07:55:34.433Z,52.17
2023-02-22T07:58:04.843Z,52.08
2023-02-22T08:00:39.299Z,52.03
2023-02-22T08:03:10.170Z,52.05
2023-02-22T08:05:40.463Z,51.98
2023-02-22T08:08:08.588Z,51.97
2023-02-22T08:10:37.116Z,51.90
2023-02-22T08:13:06.294Z,51.86
2023-02-22T08:15:37.201Z,51.74
2023-02-22T08:18:11.381Z,51.74
2023-02-22T08:20:41.036Z,51.75
2023-02-22T08:23:10.577Z,51.64
2023-02-22T08:25:38.747Z,51.75
2023-02-22T08:28:10.448Z,51.67
2023-02-22T08:30:40.666Z,51.64
2023-02-22T08:33:11.049Z,51.44
2023-02-22T08:35:40.977Z,51.38
2023-02-22T08:38:18.208Z,51.18
2023-02-22T08:40:48.462Z,51.12
2023-02-22T08:43:17.299Z,51.15
2023-02-22T08:45:46.407Z,51.13
2023-02-22T08:48:16.023Z,51.02
2023-02-22T08:50:44.587Z,50.99
2023-02-22T08:53:14.846Z,50.86
2023-02-22T08:55:43.099Z,50.81
2023-02-22T08:58:12.407Z,50.70
2023-02-22T09:00:41.785Z,50.47
2023-02-22T09:03:14.125Z,50.39
2023-02-22T09:05:44.314Z,50.42
2023-02-22T09:08:12.831Z,50.36
2023-02-22T09:10:40.925Z,50.39
2023-02-22T09:13:09.018Z,50.38
2023-02-22T09:15:37.840Z,50.37
2023-02-22T09:18:11.093Z,50.35
2023-02-22T09:20:39.177Z,50.19
2023-02-22T09:23:09.884Z,50.23
2023-02-22T09:25:41.004Z,50.19
2023-02-22T09:28:09.494Z,50.23
2023-02-22T09:30:37.959Z,50.29
2023-02-22T09:33:11.192Z,50.43
2023-02-22T09:35:46.432Z,50.53
2023-02-22T09:38:17.874Z,50.50
2023-02-22T09:41:01.275Z,50.52
2023-02-22T09:43:40.656Z,50.55
2023-02-22T09:46:38.524Z,50.54
2023-02-22T09:49:16.213Z,50.52
2023-02-22T09:52:14.841Z,50.53
2023-02-22T09:54:52.145Z,50.38
2023-02-22T09:57:29.053Z,50.41
2023-02-22T10:00:13.864Z,50.38
2023-02-22T10:03:09.794Z,50.42
2023-02-22T10:05:41.941Z,50.29
2023-02-22T10:08:16.187Z,50.11
2023-02-22T10:10:46.234Z,50.12
2023-02-22T10:13:17.420Z,50.17
2023-02-22T10:15:59.350Z,50.18
2023-02-22T10:18:36.492Z,50.10
2023-02-22T10:21:14.476Z,50.27
2023-02-22T10:24:16.382Z,50.19
2023-02-22T10:26:46.916Z,50.28
2023-02-22T10:29:23.396Z,50.40
2023-02-22T10:31:57.555Z,50.47
2023-02-22T10:34:28.497Z,50.41
2023-02-22T10:37:24.284Z,50.57
2023-02-22T10:39:58.732Z,50.54
2023-02-22T10:42:28.748Z,50.50
2023-02-22T10:44:56.750Z,50.55
2023-02-22T10:47:25.406Z,50.50
2023-02-22T10:49:57.622Z,50.52
2023-02-22T10:52:29.710Z,50.58
2023-02-22T10:55:14.046Z,50.56
2023-02-22T10:57:46.538Z,50.58
2023-02-22T11:00:14.686Z,50.44
2023-02-22T11:02:53.648Z,50.51
2023-02-22T11:05:38.065Z,50.43
2023-02-22T11:08:21.147Z,50.52
2023-02-22T11:10:51.647Z,50.55
2023-02-22T11:13:39.652Z,50.46
2023-02-22T11:16:32.735Z,50.44
2023-02-22T11:19:25.466Z,50.27
2023-02-22T11:21:58.500Z,50.32
2023-02-22T11:24:32.386Z,50.26
2023-02-22T11:27:07.732Z,50.25
2023-02-22T11:29:37.373Z,50.16
2023-02-22T11:32:22.641Z,50.11
2023-02-22T11:35:03.581Z,49.98
2023-02-22T11:37:37.448Z,50.10
2023-02-22T11:40:13.140Z,50.06
2023-02-22T11:42:41.187Z,50.04
2023-02-22T11:45:12.846Z,49.97
2023-02-22T11:47:56.292Z,49.92
2023-02-22T11:50:28.272Z,49.91
2023-02-22T11:53:01.707Z,49.87
2023-02-22T11:55:45.092Z,49.85
2023-02-22T11:58:48.503Z,49.69
2023-02-22T12:01:21.609Z,49.59
2023-02-22T12:04:21.118Z,49.58
2023-02-22T12:07:26.582Z,49.50
2023-02-22T12:10:18.488Z,49.37
2023-02-22T12:12:55.633Z,49.30
2023-02-22T12:15:34.669Z,49.24
2023-02-22T12:18:24.710Z,49.12
2023-02-22T12:21:01.695Z,49.11
2023-02-22T12:23:45.017Z,49.11
2023-02-22T12:26:24.737Z,49.02
2023-02-22T12:29:00.643Z,49.11
2023-02-22T12:31:40.935Z,49.06
2023-02-22T12:34:27.761Z,49.00
2023-02-22T12:37:09.975Z,48.98
2023-02-22T12:39:52.367Z,48.85
2023-02-22T12:42:30.266Z,48.93
2023-02-22T12:45:08.371Z,48.98
2023-02-22T12:47:45.650Z,48.85
2023-02-22T12:50:23.557Z,48.63
2023-02-22T12:53:04.303Z,48.44
2023-02-22T12:55:49.846Z,48.40
2023-02-22T12:58:21.911Z,48.35
2023-02-22T13:01:18.041Z,48.37
2023-02-22T13:03:46.668Z,48.47
2023-02-22T13:06:26.453Z,48.49
2023-02-22T13:09:13.008Z,48.53
2023-02-22T13:11:49.054Z,48.48
2023-02-22T13:14:42.565Z,48.37
2023-02-22T13:17:25.869Z,48.21
2023-02-22T13:20:06.130Z,48.16
2023-02-22T13:22:43.090Z,48.27
2023-02-22T13:25:18.943Z,48.31
2023-02-22T13:28:02.445Z,48.39
2023-02-22T13:31:12.644Z,48.35
2023-02-22T13:34:03.206Z,48.45
2023-02-22T13:37:02.226Z,48.29
2023-02-22T13:40:03.184Z,48.15
2023-02-22T13:42:43.913Z,48.08
2023-02-22T13:45:27.264Z,48.16
2023-02-22T13:48:21.778Z,48.26
2023-02-22T13:51:08.255Z,48.31
2023-02-22T13:53:54.449Z,48.36
2023-02-22T13:56:25.155Z,48.38
2023-02-22T13:58:57.494Z,48.44
2023-02-22T14:01:55.159Z,48.54
2023-02-22T14:04:29.404Z,48.63
2023-02-22T14:07:04.295Z,48.76
2023-02-22T14:09:50.583Z,48.84
2023-02-22T14:12:30.961Z,48.99
2023-02-22T14:15:27.763Z,48.94
2023-02-22T14:17:56.871Z,48.95
2023-02-22T14:20:36.960Z,48.82
2023-02-22T14:23:23.694Z,48.69
2023-02-22T14:25:52.103Z,48.64
2023-02-22T14:28:54.646Z,48.65
2023-02-22T14:31:38.908Z,48.64
2023-02-22T14:34:15.377Z,48.69
2023-02-22T14:36:55.535Z,48.62
2023-02-22T14:39:33.060Z,48.71
2023-02-22T14:42:25.630Z,48.75
2023-02-22T14:45:09.486Z,48.68
2023-02-22T14:48:01.290Z,48.71
2023-02-22T14:50:43.896Z,48.70
2023-02-22T14:53:40.976Z,48.79
2023-02-22T14:56:17.808Z,48.81
2023-02-22T14:58:55.248Z,48.84
2023-02-22T15:01:44.478Z,48.72
2023-02-22T15:04:26.414Z,48.83
2023-02-22T15:06:56.181Z,48.86
2023-02-22T15:09:28.863Z,48.80
2023-02-22T15:12:03.434Z,48.81
2023-02-22T15:14:38.141Z,48.87
2023-02-22T15:17:17.304Z,48.92
2023-02-22T15:19:48.655Z,48.96
2023-02-22T15:22:26.665Z,49.01
2023-02-22T15:25:00.150Z,49.13
2023-02-22T15:27:29.240Z,49.17
2023-02-22T15:30:04.793Z,49.25
2023-02-22T15:32:53.293Z,49.29
2023-02-22T15:35:33.991Z,49.40
2023-02-22T15:38:03.731Z,49.37
2023-02-22T15:40:33.552Z,49.49
2023-02-22T15:43:08.977Z,49.53
2023-02-22T15:45:43.137Z,49.66
2023-02-22T15:48:12.161Z,49.66
2023-02-22T15:50:40.144Z,49.66
2023-02-22T15:53:24.390Z,49.62
2023-02-22T15:55:58.850Z,49.59
2023-02-22T15:58:31.577Z,49.52
2023-02-22T16:01:11.055Z,49.42
2023-02-22T16:03:51.440Z,49.45
2023-02-22T16:06:38.253Z,49.56
2023-02-22T16:09:26.560Z,49.58
2023-02-22T16:12:22.453Z,49.64
2023-02-22T16:14:52.387Z,49.78
2023-02-22T16:18:01.501Z,49.80
2023-02-22T16:20:32.603Z,49.75
2023-02-22T16:23:00.891Z,49.84
2023-02-22T16:25:35.591Z,49.87
2023-02-22T16:28:25.881Z,49.75
2023-02-22T16:30:57.815Z,49.79
2023-02-22T16:33:29.801Z,49.81
2023-02-22T16:35:57.913Z,49.88
2023-02-22T16:38:27.601Z,49.73
2023-02-22T16:40:58.471Z,49.91
2023-02-22T16:43:32.854Z,49.90
2023-02-22T16:46:02.846Z,49.91
2023-02-22T16:48:33.309Z,49.99
2023-02-22T16:51:14.887Z,49.94
2023-02-22T16:53:43.283Z,49.82
2023-02-22T16:56:16.372Z,49.92
2023-02-22T16:58:46.960Z,49.83
2023-02-22T17:01:15.127Z,49.83
2023-02-22T17:03:43.236Z,49.75
2023-02-22T17:06:11.674Z,49.78
2023-02-22T17:08:41.526Z,49.81
2023-02-22T17:11:12.921Z,49.80
2023-02-22T17:13:41.032Z,49.75
2023-02-22T17:16:14.718Z,49.80
2023-02-22T17:18:42.846Z,49.76
2023-02-22T17:21:11.552Z,49.77
2023-02-22T17:23:39.916Z,49.64
2023-02-22T17:26:07.931Z,49.64
2023-02-22T17:28:36.041Z,49.78
2023-02-22T17:31:04.136Z,49.84
2023-02-22T17:33:34.413Z,49.67
2023-02-22T17:36:04.980Z,49.63
2023-02-22T17:38:34.549Z,49.68
2023-02-22T17:41:03.449Z,49.65
2023-02-22T17:43:31.536Z,49.68
2023-02-22T17:46:00.004Z,49.68
2023-02-22T17:48:28.169Z,49.55
2023-02-22T17:50:56.414Z,49.57
2023-02-22T17:53:25.506Z,49.56
2023-02-22T17:55:53.654Z,49.77
2023-02-22T17:58:22.790Z,49.58
2023-02-22T18:00:51.259Z,49.50
2023-02-22T18:03:25.271Z,49.57
2023-02-22T18:06:00.053Z,49.63
2023-02-22T18:08:32.214Z,49.60
2023-02-22T18:11:05.217Z,49.61
2023-02-22T18:13:33.316Z,49.57
2023-02-22T18:16:04.959Z,49.58
2023-02-22T18:18:34.024Z,49.55
2023-02-22T18:21:03.775Z,49.53
2023-02-22T18:23:33.175Z,49.51
2023-02-22T18:26:11.493Z,49.52
2023-02-22T18:28:40.003Z,49.48
2023-02-22T18:31:14.591Z,49.47
2023-02-22T18:33:44.615Z,49.40
2023-02-22T18:36:14.201Z,49.39
2023-02-22T18:38:43.544Z,49.41
2023-02-22T18:41:14.728Z,49.28
2023-02-22T18:43:43.555Z,49.23
2023-02-22T18:46:18.250Z,49.26
2023-02-22T18:48:48.162Z,49.25
2023-02-22T18:51:17.651Z,49.16
2023-02-22T18:53:47.734Z,49.28
2023-02-22T18:56:21.898Z,49.22
2023-02-22T18:58:54.431Z,49.27
2023-02-22T19:01:23.538Z,49.27
2023-02-22T19:03:52.108Z,49.19
2023-02-22T19:06:23.335Z,49.14
2023-02-22T19:08:52.146Z,49.07
2023-02-22T19:11:23.530Z,49.01
2023-02-22T19:13:55.224Z,49.09
2023-02-22T19:16:25.521Z,49.12
2023-02-22T19:18:57.510Z,49.14
2023-02-22T19:21:30.955Z,49.16
2023-02-22T19:24:01.992Z,49.15
2023-02-22T19:26:30.908Z,49.18
2023-02-22T19:29:04.970Z,49.10
2023-02-22T19:31:34.093Z,49.08
2023-02-22T19:34:10.809Z,49.06
2023-02-22T19:36:40.862Z,49.08
2023-02-22T19:39:08.976Z,49.10
2023-02-22T19:41:38.239Z,49.04
2023-02-22T19:44:07.265Z,49.05
2023-02-22T19:46:36.872Z,49.06
2023-02-22T19:49:06.494Z,49.09
2023-02-22T19:51:34.942Z,49.07
2023-02-22T19:54:08.554Z,49.11
2023-02-22T19:56:37.413Z,49.07
2023-02-22T19:59:09.641Z,49.09
2023-02-22T20:01:38.492Z,49.25
2023-02-22T20:04:09.771Z,49.37
2023-02-22T20:06:42.823Z,49.33
2023-02-22T20:09:19.953Z,49.54
2023-02-22T20:11:49.524Z,49.65
2023-02-22T20:14:30.656Z,49.71
2023-02-22T20:17:01.188Z,49.80
2023-02-22T20:19:30.066Z,49.87
2023-02-22T20:22:01.985Z,49.95
2023-02-22T20:24:30.481Z,50.09
2023-02-22T20:26:58.804Z,50.18
2023-02-22T20:29:30.142Z,50.27
2023-02-22T20:32:00.716Z,50.26
2023-02-22T20:34:33.762Z,50.39
2023-02-22T20:37:03.275Z,50.48
2023-02-22T20:39:31.954Z,50.48
2023-02-22T20:42:00.693Z,50.49
2023-02-22T20:44:29.165Z,50.62
2023-02-22T20:46:57.360Z,50.65
2023-02-22T20:49:27.439Z,50.60
2023-02-22T20:51:55.653Z,50.77
2023-02-22T20:54:24.208Z,50.82
2023-02-22T20:56:53.169Z,50.78
2023-02-22T20:59:22.015Z,50.88
2023-02-22T21:01:53.184Z,50.84
2023-02-22T21:04:24.323Z,50.84
2023-02-22T21:06:53.270Z,50.97
2023-02-22T21:09:21.855Z,50.93
2023-02-22T21:11:50.562Z,50.93
2023-02-22T21:14:18.959Z,51.05
2023-02-22T21:16:49.937Z,51.04
2023-02-22T21:19:26.043Z,51.03
2023-02-22T21:21:57.000Z,51.07
2023-02-22T21:24:27.774Z,51.00
2023-02-22T21:26:59.195Z,51.07
2023-02-22T21:29:30.594Z,50.98
2023-02-22T21:32:00.784Z,51.20
2023-02-22T21:34:29.912Z,51.10
2023-02-22T21:36:58.251Z,51.26
2023-02-22T21:39:28.769Z,51.24
2023-02-22T21:42:01.107Z,51.18
2023-02-22T21:44:30.195Z,51.17
2023-02-22T21:46:58.792Z,51.06
2023-02-22T21:49:29.015Z,51.10
2023-02-22T21:51:57.809Z,51.05
2023-02-22T21:54:28.306Z,51.11
2023-02-22T21:56:57.875Z,51.10
2023-02-22T21:59:26.698Z,51.02
2023-02-22T22:01:56.712Z,51.17
2023-02-22T22:04:30.733Z,51.18
2023-02-22T22:07:01.984Z,51.15
2023-02-22T22:09:37.677Z,51.19
2023-02-22T22:12:10.349Z,51.09
2023-02-22T22:14:40.448Z,50.95
2023-02-22T22:17:09.642Z,51.16
2023-02-22T22:19:44.136Z,51.10
2023-02-22T22:22:12.966Z,51.11
2023-02-22T22:24:46.044Z,51.07
2023-02-22T22:27:14.309Z,51.04
2023-02-22T22:29:44.098Z,51.14
2023-02-22T22:32:12.921Z,51.01
2023-02-22T22:34:42.623Z,51.04
2023-02-22T22:37:11.131Z,50.95
2023-02-22T22:39:39.881Z,51.09
2023-02-22T22:42:09.477Z,51.02
2023-02-22T22:44:42.433Z,51.07
2023-02-22T22:47:13.887Z,51.03
2023-02-22T22:49:43.118Z,51.02
2023-02-22T22:52:14.172Z,50.89
2023-02-22T22:54:43.870Z,50.84
2023-02-22T22:57:12.422Z,50.96
2023-02-22T22:59:42.067Z,50.93
2023-02-22T23:02:11.516Z,50.83
2023-02-22T23:04:40.128Z,50.91
2023-02-22T23:07:08.872Z,50.87
2023-02-22T23:09:39.623Z,50.86
2023-02-22T23:12:16.961Z,50.81
2023-02-22T23:14:45.806Z,50.65
2023-02-22T23:17:26.909Z,50.86
2023-02-22T23:19:56.259Z,50.87
2023-02-22T23:22:24.348Z,50.80
2023-02-22T23:24:52.653Z,50.80
2023-02-22T23:27:20.934Z,50.81
2023-02-22T23:29:49.695Z,50.72
2023-02-22T23:32:19.191Z,50.78
2023-02-22T23:34:49.810Z,50.77
2023-02-22T23:37:20.952Z,50.76
2023-02-22T23:39:51.178Z,50.61
2023-02-22T23:42:19.577Z,50.63
2023-02-22T23:44:48.293Z,50.69
2023-02-22T23:47:16.632Z,50.69
2023-02-22T23:49:49.463Z,50.43
2023-02-22T23:52:24.521Z,50.57
2023-02-22T23:54:54.212Z,50.59
2023-02-22T23:57:24.382Z,50.55
2023-02-22T23:59:52.642Z,50.52
